Time;durP1;ratioP1;P1;durP2;ratioP2;P2;SDS_P1;SDS_P2;PMS_P1;PMS_P2;Temp;Humidity;BMP_temperature;BMP_pressure;BME280_temperature;BME280_humidity;BME280_pressure;Samples;Min_cycle;Max_cycle;Signal;HPM_P1;HPM_P2
2022/11/12 00:01:53;;;;;;;212.63;29.50;;;;;;;;;;736286;189;894304;-73
2022/11/12 00:04:19;;;;;;;259.42;30.27;;;;;;;;;;726007;191;916564;-74
2022/11/12 00:06:45;;;;;;;183.83;29.67;;;;;;;;;;724631;192;914514;-72
2022/11/12 00:09:11;;;;;;;215.10;28.50;;;;;;;;;;724218;191;912943;-73
2022/11/12 00:11:37;;;;;;;86.27;26.07;;;;;;;;;;736920;191;915428;-73
2022/11/12 00:14:03;;;;;;;141.00;28.77;;;;;;;;;;733279;191;915014;-74
2022/11/12 00:16:28;;;;;;;153.07;28.53;;;;;;;;;;738350;191;915505;-73
2022/11/12 00:18:54;;;;;;;64.77;26.30;;;;;;;;;;708010;198;917104;-73
2022/11/12 00:21:20;;;;;;;218.77;30.50;;;;;;;;;;719718;193;920052;-74
2022/11/12 00:23:46;;;;;;;79.03;25.30;;;;;;;;;;736885;187;813166;-72
2022/11/12 00:26:12;;;;;;;216.13;28.83;;;;;;;;;;722189;191;887904;-74
2022/11/12 00:28:38;;;;;;;266.67;28.80;;;;;;;;;;721892;191;943789;-74
2022/11/12 00:31:05;;;;;;;57.40;21.53;;;;;;;;;;735716;190;816722;-74
2022/11/12 00:33:31;;;;;;;250.07;29.80;;;;;;;;;;730252;191;918548;-73
2022/11/12 00:35:57;;;;;;;308.63;32.43;;;;;;;;;;734348;189;916795;-73
2022/11/12 00:38:23;;;;;;;383.60;32.90;;;;;;;;;;733736;188;1027691;-74
2022/11/12 00:40:49;;;;;;;35.40;21.63;;;;;;;;;;730227;191;980010;-73
2022/11/12 00:43:15;;;;;;;241.83;30.37;;;;;;;;;;703153;197;921836;-73
2022/11/12 00:45:41;;;;;;;295.30;31.10;;;;;;;;;;734201;190;919000;-73
2022/11/12 00:48:06;;;;;;;215.02;29.30;;;;;;;;;;743766;187;937669;-73
2022/11/12 00:50:32;;;;;;;283.90;31.67;;;;;;;;;;733105;191;918357;-74
2022/11/12 00:52:58;;;;;;;240.27;32.07;;;;;;;;;;733388;191;919242;-73
2022/11/12 00:55:24;;;;;;;212.73;28.65;;;;;;;;;;728321;191;918863;-73
2022/11/12 00:57:50;;;;;;;150.43;26.37;;;;;;;;;;720048;192;916825;-72
2022/11/12 01:00:16;;;;;;;262.17;31.50;;;;;;;;;;728267;191;918586;-74
2022/11/12 01:02:42;;;;;;;209.55;28.15;;;;;;;;;;730014;191;1032537;-74
2022/11/12 01:05:08;;;;;;;163.13;26.83;;;;;;;;;;748070;187;916939;-74
2022/11/12 01:07:33;;;;;;;376.83;34.63;;;;;;;;;;734927;190;916665;-73
2022/11/12 01:09:59;;;;;;;359.70;34.40;;;;;;;;;;741970;187;914012;-73
2022/11/12 01:12:25;;;;;;;205.93;30.30;;;;;;;;;;741651;191;811198;-74
2022/11/12 01:14:51;;;;;;;216.00;28.63;;;;;;;;;;737035;190;816177;-74
2022/11/12 01:17:17;;;;;;;297.50;31.50;;;;;;;;;;735085;190;815259;-73
2022/11/12 01:19:43;;;;;;;285.33;29.37;;;;;;;;;;738802;188;919287;-74
2022/11/12 01:22:09;;;;;;;300.10;30.10;;;;;;;;;;736438;191;936615;-73
2022/11/12 01:24:34;;;;;;;185.50;31.70;;;;;;;;;;733591;188;917011;-73
2022/11/12 01:27:00;;;;;;;190.70;30.63;;;;;;;;;;732644;191;918823;-74
2022/11/12 01:29:26;;;;;;;182.80;29.50;;;;;;;;;;742691;187;916727;-73
2022/11/12 01:31:52;;;;;;;195.10;28.30;;;;;;;;;;732752;191;893539;-73
2022/11/12 01:34:18;;;;;;;243.70;31.55;;;;;;;;;;733063;191;936898;-73
2022/11/12 01:36:44;;;;;;;301.00;30.13;;;;;;;;;;737208;191;911600;-73
2022/11/12 01:39:09;;;;;;;251.83;28.67;;;;;;;;;;732384;188;962327;-74
2022/11/12 01:41:35;;;;;;;234.70;28.83;;;;;;;;;;738489;191;892103;-74
2022/11/12 01:44:05;;;;;;;96.07;22.63;;;;;;;;;;738789;188;915650;-74
2022/11/12 01:46:31;;;;;;;284.23;27.83;;;;;;;;;;709139;198;915308;-74
2022/11/12 01:48:58;;;;;;;235.10;26.47;;;;;;;;;;719472;193;914585;-74
2022/11/12 01:51:24;;;;;;;190.53;26.30;;;;;;;;;;712786;195;810511;-74
2022/11/12 01:53:49;;;;;;;246.83;27.13;;;;;;;;;;745506;189;919173;-73
2022/11/12 01:56:15;;;;;;;263.13;27.70;;;;;;;;;;733251;187;884455;-73
2022/11/12 01:58:41;;;;;;;152.10;24.93;;;;;;;;;;735347;188;919510;-72
2022/11/12 02:01:07;;;;;;;90.73;21.90;;;;;;;;;;743338;188;813435;-73
2022/11/12 02:03:33;;;;;;;188.07;24.40;;;;;;;;;;738476;188;757133;-73
2022/11/12 02:06:01;;;;;;;123.97;22.97;;;;;;;;;;726951;191;919244;-74
2022/11/12 02:08:27;;;;;;;120.90;22.27;;;;;;;;;;728345;191;917396;-74
2022/11/12 02:10:53;;;;;;;161.60;26.00;;;;;;;;;;734061;190;916995;-73
2022/11/12 02:15:51;;;;;;;246.17;25.77;;;;;;;;;;737040;190;919365;-72
2022/11/12 02:18:16;;;;;;;55.80;17.77;;;;;;;;;;739075;190;907200;-73
2022/11/12 02:20:42;;;;;;;146.57;20.37;;;;;;;;;;732224;190;919264;-74
2022/11/12 02:23:08;;;;;;;218.65;21.67;;;;;;;;;;730030;191;921103;-74
2022/11/12 02:25:34;;;;;;;202.47;22.97;;;;;;;;;;739836;190;919797;-74
2022/11/12 02:28:00;;;;;;;100.57;21.40;;;;;;;;;;735609;187;918508;-74
2022/11/12 02:30:30;;;;;;;185.10;27.63;;;;;;;;;;740544;189;920429;-74
2022/11/12 02:32:55;;;;;;;104.57;23.73;;;;;;;;;;735890;188;879350;-73
2022/11/12 02:35:21;;;;;;;168.75;23.77;;;;;;;;;;724391;191;921956;-73
2022/11/12 02:37:47;;;;;;;107.90;22.30;;;;;;;;;;724060;193;915169;-73
2022/11/12 02:40:13;;;;;;;173.40;28.40;;;;;;;;;;729016;190;890916;-74
2022/11/12 02:42:39;;;;;;;144.90;25.27;;;;;;;;;;739020;191;822677;-73
2022/11/12 02:45:05;;;;;;;111.37;25.73;;;;;;;;;;736935;188;918605;-74
2022/11/12 02:47:31;;;;;;;209.27;36.73;;;;;;;;;;734000;191;917491;-74
2022/11/12 02:49:57;;;;;;;247.77;33.22;;;;;;;;;;734670;191;918826;-73
2022/11/12 02:52:23;;;;;;;119.70;20.83;;;;;;;;;;747170;187;919482;-74
2022/11/12 02:54:48;;;;;;;130.83;24.87;;;;;;;;;;735846;189;919643;-73
2022/11/12 02:57:14;;;;;;;104.30;23.53;;;;;;;;;;733376;191;929818;-74
2022/11/12 02:59:40;;;;;;;60.87;18.70;;;;;;;;;;738293;191;919432;-73
2022/11/12 03:02:06;;;;;;;200.43;26.33;;;;;;;;;;732823;189;920730;-74
2022/11/12 03:04:32;;;;;;;180.93;24.60;;;;;;;;;;734945;187;918573;-73
2022/11/12 03:06:58;;;;;;;117.87;20.53;;;;;;;;;;728935;194;918800;-73
2022/11/12 03:09:23;;;;;;;85.63;17.47;;;;;;;;;;724271;192;922082;-74
2022/11/12 03:11:49;;;;;;;72.13;16.23;;;;;;;;;;738526;190;919632;-74
2022/11/12 03:14:15;;;;;;;78.67;15.43;;;;;;;;;;738875;190;917873;-73
2022/11/12 03:16:41;;;;;;;58.23;19.37;;;;;;;;;;736130;190;817051;-74
2022/11/12 03:19:07;;;;;;;119.57;23.53;;;;;;;;;;736927;188;818049;-73
2022/11/12 03:21:33;;;;;;;98.47;18.50;;;;;;;;;;734222;190;923882;-73
2022/11/12 03:23:59;;;;;;;35.13;14.97;;;;;;;;;;739726;188;815749;-74
2022/11/12 03:26:24;;;;;;;55.57;20.20;;;;;;;;;;735414;191;917135;-73
2022/11/12 03:28:50;;;;;;;61.13;17.83;;;;;;;;;;732722;189;918820;-74
2022/11/12 03:31:16;;;;;;;43.97;16.63;;;;;;;;;;737698;189;862116;-74
2022/11/12 03:33:42;;;;;;;59.10;18.90;;;;;;;;;;731823;188;815845;-73
2022/11/12 03:36:08;;;;;;;225.67;25.47;;;;;;;;;;724443;192;919710;-74
2022/11/12 03:38:34;;;;;;;57.23;16.63;;;;;;;;;;725902;191;808548;-74
2022/11/12 03:41:00;;;;;;;137.23;20.17;;;;;;;;;;728073;191;919196;-75
2022/11/12 03:43:25;;;;;;;55.20;16.77;;;;;;;;;;736853;188;921312;-73
2022/11/12 03:45:51;;;;;;;71.67;17.20;;;;;;;;;;731933;191;919842;-74
2022/11/12 03:48:17;;;;;;;148.63;22.43;;;;;;;;;;748672;186;914722;-74
2022/11/12 03:50:43;;;;;;;189.93;23.97;;;;;;;;;;735236;190;912490;-73
2022/11/12 03:53:09;;;;;;;208.15;26.73;;;;;;;;;;733050;188;919356;-74
2022/11/12 03:55:35;;;;;;;235.33;26.83;;;;;;;;;;740049;191;919082;-73
2022/11/12 03:58:01;;;;;;;170.77;25.45;;;;;;;;;;729862;191;919804;-73
2022/11/12 04:00:26;;;;;;;204.67;24.77;;;;;;;;;;729837;191;918583;-74
2022/11/12 04:02:52;;;;;;;231.40;27.03;;;;;;;;;;734596;192;919404;-73
2022/11/12 04:10:30;;;;;;;173.27;22.80;;;;;;;;;;733592;190;918402;-76
2022/11/12 04:15:27;;;;;;;175.47;21.73;;;;;;;;;;727709;190;917957;-75
2022/11/12 04:22:56;;;;;;;107.77;21.00;;;;;;;;;;733828;188;817242;-75
2022/11/12 04:27:53;;;;;;;155.93;23.08;;;;;;;;;;735869;189;929790;-75
2022/11/12 04:30:19;;;;;;;242.43;25.60;;;;;;;;;;736410;189;813727;-75
2022/11/12 04:32:49;;;;;;;268.95;26.70;;;;;;;;;;721597;191;919587;-76
2022/11/12 04:35:15;;;;;;;308.00;28.17;;;;;;;;;;727631;190;1120049;-75
2022/11/12 04:37:43;;;;;;;157.10;19.57;;;;;;;;;;728535;190;909992;-74
2022/11/12 04:45:13;;;;;;;170.10;24.00;;;;;;;;;;735592;189;913564;-75
2022/11/12 04:47:39;;;;;;;196.40;22.43;;;;;;;;;;721811;191;919232;-75
2022/11/12 04:50:05;;;;;;;177.03;22.67;;;;;;;;;;719252;192;917761;-75
2022/11/12 04:52:31;;;;;;;183.83;23.63;;;;;;;;;;735372;191;920766;-75
2022/11/12 04:54:57;;;;;;;51.53;19.13;;;;;;;;;;705791;199;919062;-75
2022/11/12 04:57:23;;;;;;;88.97;17.57;;;;;;;;;;722535;193;918399;-74
2022/11/12 04:59:49;;;;;;;50.27;18.43;;;;;;;;;;740447;186;915423;-75
2022/11/12 05:02:14;;;;;;;82.23;16.70;;;;;;;;;;741109;190;916784;-74
2022/11/12 05:04:40;;;;;;;48.03;16.90;;;;;;;;;;732805;191;920116;-75
2022/11/12 05:07:06;;;;;;;28.80;14.63;;;;;;;;;;735088;191;912490;-75
2022/11/12 05:09:32;;;;;;;59.97;15.30;;;;;;;;;;739943;191;816350;-74
2022/11/12 05:11:58;;;;;;;70.17;16.40;;;;;;;;;;731888;191;813932;-74
2022/11/12 05:14:24;;;;;;;47.17;15.70;;;;;;;;;;739628;189;1022257;-74
2022/11/12 05:16:50;;;;;;;61.17;19.30;;;;;;;;;;748927;190;919553;-74
2022/11/12 05:19:15;;;;;;;53.42;18.35;;;;;;;;;;735975;189;817527;-75
2022/11/12 05:24:13;;;;;;;175.45;34.38;;;;;;;;;;733386;189;920908;-74
2022/11/12 05:26:39;;;;;;;160.23;31.63;;;;;;;;;;736921;189;914582;-74
2022/11/12 05:29:05;;;;;;;195.33;29.20;;;;;;;;;;726156;192;817031;-75
2022/11/12 05:31:30;;;;;;;212.75;31.77;;;;;;;;;;727969;190;918360;-74
2022/11/12 05:33:56;;;;;;;143.60;25.57;;;;;;;;;;725013;193;918446;-75
2022/11/12 05:36:22;;;;;;;77.65;25.83;;;;;;;;;;727281;190;916215;-75
2022/11/12 05:38:48;;;;;;;68.57;22.57;;;;;;;;;;723319;191;900853;-74
2022/11/12 05:41:14;;;;;;;142.57;25.13;;;;;;;;;;728046;191;921739;-74
2022/11/12 05:43:40;;;;;;;42.33;19.67;;;;;;;;;;735827;188;918576;-75
2022/11/12 05:46:06;;;;;;;36.13;19.90;;;;;;;;;;731547;189;918976;-75
2022/11/12 05:48:31;;;;;;;38.93;20.17;;;;;;;;;;739639;187;821323;-74
2022/11/12 05:50:57;;;;;;;67.23;19.60;;;;;;;;;;740280;190;919025;-75
2022/11/12 05:53:23;;;;;;;129.87;24.43;;;;;;;;;;725845;189;918611;-75
2022/11/12 05:55:49;;;;;;;139.63;24.67;;;;;;;;;;726336;191;919010;-75
2022/11/12 05:58:15;;;;;;;160.07;21.60;;;;;;;;;;740073;188;918023;-75
2022/11/12 06:00:41;;;;;;;35.35;16.77;;;;;;;;;;733576;190;920943;-75
2022/11/12 06:03:07;;;;;;;37.67;16.40;;;;;;;;;;733642;189;918074;-75
2022/11/12 06:05:32;;;;;;;191.60;24.63;;;;;;;;;;739816;191;813704;-73
2022/11/12 06:07:58;;;;;;;168.73;24.43;;;;;;;;;;737438;188;918989;-75
2022/11/12 06:10:24;;;;;;;163.53;22.87;;;;;;;;;;736921;191;927198;-74
2022/11/12 06:12:50;;;;;;;128.63;22.07;;;;;;;;;;730466;191;919494;-74
2022/11/12 06:15:16;;;;;;;53.67;18.20;;;;;;;;;;734998;190;916326;-75
2022/11/12 06:17:42;;;;;;;37.50;18.57;;;;;;;;;;734448;190;919037;-74
2022/11/12 06:20:08;;;;;;;65.12;20.02;;;;;;;;;;730908;188;918889;-75
2022/11/12 06:22:34;;;;;;;23.73;16.90;;;;;;;;;;739065;191;917758;-75
2022/11/12 06:25:00;;;;;;;32.70;17.30;;;;;;;;;;735978;188;928466;-74
2022/11/12 06:27:25;;;;;;;77.13;19.63;;;;;;;;;;728497;190;920249;-74
2022/11/12 06:29:51;;;;;;;133.90;22.27;;;;;;;;;;738733;187;901674;-75
2022/11/12 06:32:17;;;;;;;28.23;16.97;;;;;;;;;;732737;191;918678;-74
2022/11/12 06:34:43;;;;;;;74.77;18.60;;;;;;;;;;728920;191;922826;-74
2022/11/12 06:37:09;;;;;;;102.27;19.67;;;;;;;;;;733501;191;919936;-74
2022/11/12 06:39:35;;;;;;;118.37;22.00;;;;;;;;;;739846;185;918162;-74
2022/11/12 06:42:01;;;;;;;113.97;22.33;;;;;;;;;;738039;190;917812;-75
2022/11/12 06:44:26;;;;;;;156.20;21.50;;;;;;;;;;730738;187;917264;-75
2022/11/12 06:46:52;;;;;;;32.07;18.50;;;;;;;;;;730157;191;919439;-74
2022/11/12 06:49:18;;;;;;;117.40;20.40;;;;;;;;;;719938;192;918644;-74
2022/11/12 06:51:44;;;;;;;76.47;18.90;;;;;;;;;;731856;190;919343;-75
2022/11/12 06:54:10;;;;;;;63.67;18.80;;;;;;;;;;742881;187;807315;-74
2022/11/12 06:56:36;;;;;;;36.43;15.07;;;;;;;;;;728860;191;879417;-75
2022/11/12 06:59:01;;;;;;;130.60;19.27;;;;;;;;;;728689;191;1033856;-74
2022/11/12 07:01:27;;;;;;;45.65;16.30;;;;;;;;;;735803;190;816214;-74
2022/11/12 07:03:53;;;;;;;22.73;14.50;;;;;;;;;;734859;191;817445;-75
2022/11/12 07:06:19;;;;;;;46.00;16.20;;;;;;;;;;722168;191;921272;-75
2022/11/12 07:08:47;;;;;;;28.50;14.87;;;;;;;;;;737558;188;940447;-74
2022/11/12 07:11:12;;;;;;;99.07;19.00;;;;;;;;;;730179;189;1036635;-74
2022/11/12 07:13:38;;;;;;;38.83;16.50;;;;;;;;;;727714;190;815583;-74
2022/11/12 07:16:04;;;;;;;46.53;16.17;;;;;;;;;;734155;190;917522;-76
2022/11/12 07:18:30;;;;;;;53.13;17.77;;;;;;;;;;727260;190;919285;-74
2022/11/12 07:20:56;;;;;;;25.40;14.67;;;;;;;;;;728123;191;917298;-75
2022/11/12 07:23:22;;;;;;;44.70;15.93;;;;;;;;;;729714;191;916033;-75
2022/11/12 07:25:48;;;;;;;29.87;14.93;;;;;;;;;;729763;191;916572;-75
2022/11/12 07:28:14;;;;;;;56.63;16.27;;;;;;;;;;733138;191;916403;-74
2022/11/12 07:30:40;;;;;;;29.83;14.50;;;;;;;;;;732284;189;1017492;-74
2022/11/12 07:33:06;;;;;;;50.37;14.47;;;;;;;;;;732670;187;815376;-75
2022/11/12 07:35:31;;;;;;;39.73;12.63;;;;;;;;;;736191;190;907853;-75
2022/11/12 07:37:57;;;;;;;22.20;11.50;;;;;;;;;;732114;187;919304;-75
2022/11/12 07:40:23;;;;;;;43.83;13.93;;;;;;;;;;727295;190;918849;-74
2022/11/12 07:42:49;;;;;;;102.77;17.10;;;;;;;;;;733841;190;918298;-75
2022/11/12 07:45:15;;;;;;;119.17;15.73;;;;;;;;;;730872;190;919356;-74
2022/11/12 07:47:41;;;;;;;213.93;24.13;;;;;;;;;;734355;189;928385;-74
2022/11/12 07:50:07;;;;;;;30.07;11.70;;;;;;;;;;738718;188;934536;-75
2022/11/12 07:52:33;;;;;;;20.43;12.40;;;;;;;;;;734181;183;918029;-75
2022/11/12 07:54:58;;;;;;;32.67;9.80;;;;;;;;;;738889;187;920728;-75
2022/11/12 07:57:24;;;;;;;105.03;15.30;;;;;;;;;;734442;189;915533;-75
2022/11/12 07:59:50;;;;;;;80.72;14.73;;;;;;;;;;738407;188;817329;-75
2022/11/12 08:02:16;;;;;;;29.20;11.83;;;;;;;;;;731840;190;919140;-74
2022/11/12 08:04:42;;;;;;;75.25;14.57;;;;;;;;;;734720;188;1019732;-75
2022/11/12 08:07:08;;;;;;;103.00;16.77;;;;;;;;;;734112;190;917747;-75
2022/11/12 08:09:35;;;;;;;76.77;15.53;;;;;;;;;;736040;189;816310;-74
2022/11/12 08:12:02;;;;;;;78.07;16.23;;;;;;;;;;730291;191;870432;-75
2022/11/12 08:14:29;;;;;;;105.07;15.65;;;;;;;;;;727559;192;847867;-75
2022/11/12 08:16:55;;;;;;;69.93;16.03;;;;;;;;;;728181;191;816860;-74
2022/11/12 08:19:20;;;;;;;47.00;13.13;;;;;;;;;;733487;190;815627;-75
2022/11/12 08:21:46;;;;;;;64.37;15.40;;;;;;;;;;732256;190;916129;-74
2022/11/12 08:24:12;;;;;;;85.93;14.67;;;;;;;;;;737122;189;918944;-74
2022/11/12 08:26:38;;;;;;;50.43;13.43;;;;;;;;;;729630;191;919721;-75
2022/11/12 08:29:04;;;;;;;81.53;14.37;;;;;;;;;;723256;192;918937;-75
2022/11/12 08:31:30;;;;;;;110.57;18.07;;;;;;;;;;736293;190;917956;-74
2022/11/12 08:33:55;;;;;;;32.20;12.13;;;;;;;;;;707861;195;815678;-75
2022/11/12 08:36:21;;;;;;;39.73;10.97;;;;;;;;;;725346;191;919968;-74
2022/11/12 08:38:47;;;;;;;70.03;14.57;;;;;;;;;;735936;191;917445;-74
2022/11/12 08:41:13;;;;;;;164.53;18.70;;;;;;;;;;732719;191;948573;-74
2022/11/12 08:43:39;;;;;;;29.83;10.73;;;;;;;;;;734159;191;1021732;-73
2022/11/12 08:46:05;;;;;;;41.70;11.40;;;;;;;;;;739840;190;816737;-74
2022/11/12 08:48:31;;;;;;;41.67;10.43;;;;;;;;;;737329;190;811018;-74
2022/11/12 08:50:57;;;;;;;57.13;13.80;;;;;;;;;;727769;191;920343;-75
2022/11/12 08:53:22;;;;;;;44.30;12.00;;;;;;;;;;726656;190;926124;-76
2022/11/12 08:55:48;;;;;;;22.13;11.60;;;;;;;;;;732291;192;918694;-75
2022/11/12 08:58:14;;;;;;;102.23;17.30;;;;;;;;;;707041;197;918734;-75
2022/11/12 09:00:40;;;;;;;68.37;18.63;;;;;;;;;;726340;189;817679;-74
2022/11/12 09:03:06;;;;;;;46.80;12.23;;;;;;;;;;731690;190;918487;-74
2022/11/12 09:05:33;;;;;;;21.93;11.87;;;;;;;;;;733756;190;975592;-74
2022/11/12 09:07:59;;;;;;;111.37;16.97;;;;;;;;;;733652;188;809270;-75
2022/11/12 09:10:25;;;;;;;174.83;20.00;;;;;;;;;;736581;190;913503;-75
2022/11/12 09:12:51;;;;;;;58.23;16.63;;;;;;;;;;733438;191;814295;-76
2022/11/12 09:15:17;;;;;;;27.70;14.87;;;;;;;;;;736220;190;916018;-75
2022/11/12 09:17:44;;;;;;;69.20;14.93;;;;;;;;;;737079;190;919411;-74
2022/11/12 09:20:10;;;;;;;38.27;16.27;;;;;;;;;;735610;187;909837;-75
2022/11/12 09:22:35;;;;;;;29.23;14.33;;;;;;;;;;703880;199;918723;-75
2022/11/12 09:25:01;;;;;;;46.20;16.20;;;;;;;;;;731731;188;918541;-74
2022/11/12 09:27:27;;;;;;;55.05;15.90;;;;;;;;;;732963;190;918951;-74
2022/11/12 09:29:53;;;;;;;55.07;16.03;;;;;;;;;;728935;190;919164;-74
2022/11/12 09:32:19;;;;;;;52.40;14.13;;;;;;;;;;734432;190;912002;-75
2022/11/12 09:34:45;;;;;;;59.53;16.00;;;;;;;;;;729824;191;920481;-73
2022/11/12 09:37:10;;;;;;;60.50;16.60;;;;;;;;;;740302;186;907544;-75
2022/11/12 09:39:36;;;;;;;33.63;14.27;;;;;;;;;;728940;190;919283;-74
2022/11/12 09:42:07;;;;;;;26.10;15.80;;;;;;;;;;733876;188;928490;-76
2022/11/12 09:44:33;;;;;;;23.38;16.33;;;;;;;;;;746037;187;909892;-75
2022/11/12 09:46:59;;;;;;;22.30;16.63;;;;;;;;;;734726;190;911327;-74
2022/11/12 09:49:24;;;;;;;25.40;16.77;;;;;;;;;;736372;187;910309;-75
2022/11/12 09:51:51;;;;;;;23.20;17.27;;;;;;;;;;723517;191;919046;-74
2022/11/12 09:54:16;;;;;;;28.23;19.97;;;;;;;;;;726798;191;884323;-74
2022/11/12 09:56:42;;;;;;;26.40;17.90;;;;;;;;;;731048;190;919067;-75
2022/11/12 09:59:09;;;;;;;26.80;20.67;;;;;;;;;;725385;190;815965;-74
2022/11/12 10:01:41;;;;;;;37.80;26.30;;;;;;;;;;729117;190;917283;-74
2022/11/12 10:04:12;;;;;;;28.60;21.73;;;;;;;;;;724326;189;1022188;-74
2022/11/12 10:06:40;;;;;;;31.80;23.37;;;;;;;;;;736573;189;933222;-76
2022/11/12 10:09:07;;;;;;;25.53;18.20;;;;;;;;;;730231;190;815900;-75
2022/11/12 10:12:30;;;;;;;19.10;15.67;;;;;;;;;;729411;191;919675;-75
2022/11/12 10:14:04;;;;;;;18.20;15.48;;;;;;;;;;706482;196;921044;-75
2022/11/12 10:16:44;;;;;;;19.13;13.40;;;;;;;;;;729888;190;921477;-75
2022/11/12 10:19:11;;;;;;;17.60;13.70;;;;;;;;;;722090;191;921058;-75
2022/11/12 10:21:49;;;;;;;16.17;13.13;;;;;;;;;;720189;194;921155;-75
2022/11/12 10:24:15;;;;;;;24.43;12.27;;;;;;;;;;730084;190;918756;-75
2022/11/12 10:26:40;;;;;;;16.00;11.13;;;;;;;;;;730185;190;921204;-75
2022/11/12 10:29:11;;;;;;;17.87;13.03;;;;;;;;;;731143;191;919140;-75
2022/11/12 10:31:37;;;;;;;14.90;10.83;;;;;;;;;;721203;191;1020865;-74
2022/11/12 10:34:20;;;;;;;15.20;11.67;;;;;;;;;;738088;189;713091;-74
2022/11/12 10:36:48;;;;;;;18.20;14.00;;;;;;;;;;731348;189;918485;-74
2022/11/12 10:39:20;;;;;;;17.03;14.37;;;;;;;;;;732240;188;919963;-75
2022/11/12 10:41:45;;;;;;;15.30;13.00;;;;;;;;;;727185;190;816300;-75
2022/11/12 10:44:11;;;;;;;18.30;15.37;;;;;;;;;;733428;190;917423;-75
2022/11/12 10:46:39;;;;;;;18.98;15.40;;;;;;;;;;740562;190;815740;-75
2022/11/12 10:49:06;;;;;;;20.93;15.83;;;;;;;;;;733105;188;920304;-75
2022/11/12 10:51:32;;;;;;;21.10;15.50;;;;;;;;;;733643;190;918120;-75
2022/11/12 10:53:59;;;;;;;19.60;16.27;;;;;;;;;;735680;191;912047;-75
2022/11/12 10:56:26;;;;;;;17.97;14.77;;;;;;;;;;727821;190;913643;-75
2022/11/12 10:59:13;;;;;;;19.00;14.23;;;;;;;;;;728808;190;1006921;-74
2022/11/12 11:01:38;;;;;;;18.20;15.17;;;;;;;;;;731603;190;919483;-75
2022/11/12 11:04:04;;;;;;;17.07;13.03;;;;;;;;;;730574;191;918638;-75
2022/11/12 11:06:30;;;;;;;17.67;13.63;;;;;;;;;;736674;191;917479;-74
2022/11/12 11:09:02;;;;;;;17.07;13.50;;;;;;;;;;730251;191;918236;-75
2022/11/12 11:11:28;;;;;;;14.40;11.80;;;;;;;;;;735055;190;918664;-75
2022/11/12 11:13:54;;;;;;;13.70;10.80;;;;;;;;;;722528;190;918502;-75
2022/11/12 11:16:19;;;;;;;15.57;12.50;;;;;;;;;;729538;190;935719;-75
2022/11/12 11:18:45;;;;;;;16.07;11.80;;;;;;;;;;729220;189;917918;-75
2022/11/12 11:21:14;;;;;;;15.23;12.70;;;;;;;;;;730127;190;934317;-76
2022/11/12 11:23:41;;;;;;;16.20;12.90;;;;;;;;;;737104;189;890798;-76
2022/11/12 11:26:06;;;;;;;14.80;12.43;;;;;;;;;;735162;189;918327;-75
2022/11/12 11:28:32;;;;;;;20.07;14.53;;;;;;;;;;736408;190;888709;-75
2022/11/12 11:31:08;;;;;;;17.30;11.20;;;;;;;;;;734739;190;919055;-75
2022/11/12 11:33:45;;;;;;;20.70;12.70;;;;;;;;;;740826;187;918877;-75
2022/11/12 11:36:11;;;;;;;12.27;8.40;;;;;;;;;;741332;191;813531;-74
2022/11/12 11:38:47;;;;;;;10.57;8.57;;;;;;;;;;734645;190;906251;-75
2022/11/12 11:41:30;;;;;;;12.07;8.77;;;;;;;;;;737192;189;816739;-75
2022/11/12 11:44:01;;;;;;;14.90;8.93;;;;;;;;;;734037;190;819549;-75
2022/11/12 11:46:34;;;;;;;13.57;10.67;;;;;;;;;;732706;190;925360;-75
2022/11/12 11:49:06;;;;;;;12.67;9.77;;;;;;;;;;739807;190;918157;-76
2022/11/12 11:51:36;;;;;;;11.77;8.30;;;;;;;;;;742800;190;817993;-75
2022/11/12 11:54:08;;;;;;;11.17;8.60;;;;;;;;;;735792;188;843895;-75
2022/11/12 11:56:34;;;;;;;14.60;9.53;;;;;;;;;;734453;189;918004;-75
2022/11/12 11:59:00;;;;;;;16.17;9.80;;;;;;;;;;734272;188;918058;-75
2022/11/12 12:01:26;;;;;;;14.00;9.50;;;;;;;;;;733823;190;919429;-75
2022/11/12 12:03:59;;;;;;;11.10;9.57;;;;;;;;;;727543;191;919452;-74
2022/11/12 12:06:26;;;;;;;15.60;9.63;;;;;;;;;;730353;191;919733;-75
2022/11/12 12:08:55;;;;;;;13.57;8.10;;;;;;;;;;734803;191;918536;-74
2022/11/12 12:11:23;;;;;;;17.47;9.50;;;;;;;;;;739075;190;918533;-74
2022/11/12 12:14:05;;;;;;;11.63;9.23;;;;;;;;;;733007;191;940332;-74
2022/11/12 12:16:37;;;;;;;13.93;10.00;;;;;;;;;;732653;189;920648;-75
2022/11/12 12:19:18;;;;;;;16.00;13.10;;;;;;;;;;735679;188;908727;-75
2022/11/12 12:21:43;;;;;;;17.07;14.03;;;;;;;;;;733460;189;920108;-74
2022/11/12 12:24:24;;;;;;;18.40;15.00;;;;;;;;;;735889;191;817018;-75
2022/11/12 12:26:51;;;;;;;21.20;14.77;;;;;;;;;;732158;191;917007;-75
2022/11/12 12:29:27;;;;;;;21.10;16.90;;;;;;;;;;735392;191;814211;-75
2022/11/12 12:31:52;;;;;;;21.47;15.47;;;;;;;;;;736640;184;819603;-74
2022/11/12 12:34:24;;;;;;;22.07;16.30;;;;;;;;;;734584;188;912641;-75
2022/11/12 12:36:50;;;;;;;25.27;17.20;;;;;;;;;;734498;189;912830;-75
2022/11/12 12:39:17;;;;;;;22.40;16.00;;;;;;;;;;740633;188;913130;-75
2022/11/12 12:41:43;;;;;;;23.83;16.83;;;;;;;;;;736208;190;813650;-76
2022/11/12 12:44:09;;;;;;;20.60;16.40;;;;;;;;;;734361;187;919461;-75
2022/11/12 12:46:38;;;;;;;24.03;16.93;;;;;;;;;;732246;190;915346;-75
2022/11/12 12:49:04;;;;;;;21.33;16.55;;;;;;;;;;726642;187;918576;-74
2022/11/12 12:51:29;;;;;;;27.43;17.60;;;;;;;;;;735012;190;943658;-75
2022/11/12 12:53:55;;;;;;;22.70;15.77;;;;;;;;;;743918;187;918154;-75
2022/11/12 12:56:36;;;;;;;22.57;14.20;;;;;;;;;;737488;190;919234;-75
2022/11/12 12:59:02;;;;;;;20.13;15.33;;;;;;;;;;735042;187;918146;-74
2022/11/12 13:01:28;;;;;;;23.83;15.00;;;;;;;;;;730350;190;817653;-74
2022/11/12 13:03:54;;;;;;;22.27;15.80;;;;;;;;;;736209;188;918836;-75
2022/11/12 13:06:29;;;;;;;21.40;14.20;;;;;;;;;;729132;190;917593;-74
2022/11/12 13:08:55;;;;;;;18.53;14.17;;;;;;;;;;732881;190;919062;-74
2022/11/12 13:12:20;;;;;;;19.33;14.43;;;;;;;;;;728740;191;919047;-75
2022/11/12 13:13:53;;;;;;;21.13;15.87;;;;;;;;;;732945;189;918903;-74
2022/11/12 13:16:25;;;;;;;19.23;14.53;;;;;;;;;;736041;191;947561;-74
2022/11/12 13:18:59;;;;;;;21.57;12.43;;;;;;;;;;735655;187;918644;-74
2022/11/12 13:21:25;;;;;;;20.10;14.23;;;;;;;;;;737407;191;892659;-74
2022/11/12 13:26:42;;;;;;;24.93;14.40;;;;;;;;;;740062;189;919541;-75
2022/11/12 13:29:14;;;;;;;20.20;14.00;;;;;;;;;;736324;188;919018;-75
2022/11/12 13:31:40;;;;;;;24.30;13.23;;;;;;;;;;738008;191;819897;-74
2022/11/12 13:34:11;;;;;;;17.77;13.10;;;;;;;;;;732437;191;916212;-75
2022/11/12 13:36:37;;;;;;;24.73;13.20;;;;;;;;;;728759;191;1021331;-74
2022/11/12 13:39:06;;;;;;;21.83;14.50;;;;;;;;;;729755;190;1123296;-75
2022/11/12 13:44:04;;;;;;;24.87;16.70;;;;;;;;;;733974;189;918988;-75
2022/11/12 13:46:29;;;;;;;28.60;19.43;;;;;;;;;;729739;191;886152;-75
2022/11/12 13:48:58;;;;;;;27.17;18.30;;;;;;;;;;732704;188;918192;-74
2022/11/12 13:51:30;;;;;;;26.90;19.93;;;;;;;;;;710091;198;816099;-75
2022/11/12 13:53:56;;;;;;;23.97;18.93;;;;;;;;;;733560;189;814134;-74
2022/11/12 13:56:24;;;;;;;24.60;18.80;;;;;;;;;;732007;191;915101;-74
2022/11/12 13:58:50;;;;;;;27.30;19.93;;;;;;;;;;742838;190;687216;-75
2022/11/12 14:01:17;;;;;;;23.47;18.53;;;;;;;;;;723339;192;919473;-75
2022/11/12 14:03:44;;;;;;;26.67;18.70;;;;;;;;;;733813;191;920964;-74
2022/11/12 14:06:14;;;;;;;26.07;17.67;;;;;;;;;;726802;190;919798;-75
2022/11/12 14:08:49;;;;;;;30.50;20.33;;;;;;;;;;734217;191;918382;-75
2022/11/12 14:11:16;;;;;;;25.10;17.23;;;;;;;;;;739494;191;817117;-75
2022/11/12 14:13:48;;;;;;;27.57;18.73;;;;;;;;;;735654;190;816250;-74
2022/11/12 14:16:15;;;;;;;29.63;19.40;;;;;;;;;;731521;191;918269;-74
2022/11/12 14:18:43;;;;;;;32.25;20.75;;;;;;;;;;738523;190;925334;-74
2022/11/12 14:21:09;;;;;;;29.57;18.93;;;;;;;;;;743915;185;785177;-74
2022/11/12 14:23:35;;;;;;;28.87;18.73;;;;;;;;;;736714;188;916311;-74
2022/11/12 14:26:01;;;;;;;29.73;20.80;;;;;;;;;;726402;190;921053;-73
2022/11/12 14:28:28;;;;;;;28.87;19.17;;;;;;;;;;735235;188;917463;-74
2022/11/12 14:30:54;;;;;;;29.07;19.00;;;;;;;;;;737568;189;918819;-74